Time;durP1;ratioP1;P1;durP2;ratioP2;P2;SDS_P1;SDS_P2;PMS_P1;PMS_P2;Temp;Humidity;BMP_temperature;BMP_pressure;BME280_temperature;BME280_humidity;BME280_pressure;Samples;Min_cycle;Max_cycle;Signal;HPM_P1;HPM_P2
2020/12/24 00:00:35;;;;;;;14.15;7.88;;;;;;;;;;5074622;28;20036;-48
2020/12/24 00:03:01;;;;;;;14.18;7.75;;;;;;;;;;5073272;28;20024;-48
2020/12/24 00:05:27;;;;;;;15.63;7.53;;;;;;;;;;5075842;28;20032;-51
2020/12/24 00:07:53;;;;;;;13.20;7.10;;;;;;;;;;5062607;28;20040;-49
2020/12/24 00:10:19;;;;;;;12.38;7.05;;;;;;;;;;5070847;28;20025;-54
2020/12/24 00:12:45;;;;;;;12.52;7.22;;;;;;;;;;5080467;28;20050;-50
2020/12/24 00:15:11;;;;;;;14.57;7.50;;;;;;;;;;5075788;28;20024;-51
2020/12/24 00:17:37;;;;;;;11.55;6.88;;;;;;;;;;5070766;28;20119;-51
2020/12/24 00:20:05;;;;;;;11.13;6.65;;;;;;;;;;5063688;28;20060;-48
2020/12/24 00:22:31;;;;;;;11.38;6.70;;;;;;;;;;5072342;28;20533;-50
2020/12/24 00:24:57;;;;;;;10.10;6.35;;;;;;;;;;5080144;28;20035;-50
2020/12/24 00:27:23;;;;;;;9.30;5.47;;;;;;;;;;5074899;28;20021;-47
2020/12/24 00:29:49;;;;;;;13.32;6.45;;;;;;;;;;5068029;28;20048;-52
2020/12/24 00:32:15;;;;;;;11.02;5.13;;;;;;;;;;5074604;28;20039;-52
2020/12/24 00:34:41;;;;;;;10.30;5.30;;;;;;;;;;5070700;28;20029;-49
2020/12/24 00:37:07;;;;;;;7.85;4.97;;;;;;;;;;5074568;28;20427;-47
2020/12/24 00:39:33;;;;;;;7.07;4.68;;;;;;;;;;5072295;28;20029;-50
2020/12/24 00:41:59;;;;;;;10.35;4.95;;;;;;;;;;5071253;28;20024;-53
2020/12/24 00:44:25;;;;;;;7.60;4.75;;;;;;;;;;5072217;28;20035;-48
2020/12/24 00:46:52;;;;;;;7.95;4.20;;;;;;;;;;5074609;28;20648;-53
2020/12/24 00:49:18;;;;;;;5.28;3.63;;;;;;;;;;5061564;28;20040;-47
2020/12/24 00:51:44;;;;;;;7.95;3.47;;;;;;;;;;5075497;28;20414;-47
2020/12/24 00:54:10;;;;;;;5.47;3.67;;;;;;;;;;5073779;28;20047;-47
2020/12/24 00:56:36;;;;;;;9.60;3.10;;;;;;;;;;5064275;28;20039;-53
2020/12/24 00:59:02;;;;;;;6.43;2.88;;;;;;;;;;5066945;28;20492;-51
2020/12/24 01:01:28;;;;;;;5.38;3.22;;;;;;;;;;5077514;28;20851;-48
2020/12/24 01:03:54;;;;;;;3.80;2.90;;;;;;;;;;5068156;28;20057;-48
2020/12/24 01:06:20;;;;;;;7.68;2.80;;;;;;;;;;5069314;28;20048;-47
2020/12/24 01:08:46;;;;;;;4.47;2.60;;;;;;;;;;5073194;28;20029;-47
2020/12/24 01:11:12;;;;;;;4.22;2.80;;;;;;;;;;5077384;28;20051;-49
2020/12/24 01:13:38;;;;;;;3.65;2.30;;;;;;;;;;5069681;28;20504;-53
2020/12/24 01:16:04;;;;;;;5.82;2.15;;;;;;;;;;5080902;28;20036;-51
2020/12/24 01:18:30;;;;;;;3.80;2.22;;;;;;;;;;5075756;28;20025;-51
2020/12/24 01:20:56;;;;;;;2.88;2.30;;;;;;;;;;5072776;28;20476;-49
2020/12/24 01:23:22;;;;;;;3.70;1.90;;;;;;;;;;5074760;28;20069;-51
2020/12/24 01:25:48;;;;;;;2.47;1.75;;;;;;;;;;5074364;28;20049;-50
2020/12/24 01:28:14;;;;;;;3.40;1.80;;;;;;;;;;5065575;28;20028;-51
2020/12/24 01:30:40;;;;;;;2.50;2.05;;;;;;;;;;5067169;28;20029;-47
2020/12/24 01:33:06;;;;;;;2.97;1.80;;;;;;;;;;5073427;28;20040;-47
2020/12/24 01:35:32;;;;;;;3.83;1.80;;;;;;;;;;5068449;28;20448;-50
2020/12/24 01:37:57;;;;;;;2.85;1.80;;;;;;;;;;5066764;28;20036;-53
2020/12/24 01:40:23;;;;;;;4.35;1.85;;;;;;;;;;5076146;28;20020;-51
2020/12/24 01:42:49;;;;;;;3.00;1.38;;;;;;;;;;5079207;28;20024;-50
2020/12/24 01:45:16;;;;;;;6.43;2.08;;;;;;;;;;5080123;28;20121;-47
2020/12/24 01:47:42;;;;;;;2.53;1.65;;;;;;;;;;5079095;28;20108;-48
2020/12/24 01:50:08;;;;;;;4.28;1.58;;;;;;;;;;5075204;28;20086;-51
2020/12/24 01:52:38;;;;;;;2.20;1.42;;;;;;;;;;5075775;28;20104;-49
2020/12/24 01:55:11;;;;;;;2.70;1.50;;;;;;;;;;5074280;28;20042;-47
2020/12/24 01:57:38;;;;;;;2.60;1.80;;;;;;;;;;5075783;28;20035;-48
2020/12/24 02:00:10;;;;;;;2.08;1.55;;;;;;;;;;5069909;28;20037;-53
2020/12/24 02:02:37;;;;;;;4.33;1.90;;;;;;;;;;5073995;28;20029;-47
2020/12/24 02:05:03;;;;;;;1.90;1.63;;;;;;;;;;5072993;28;20035;-51
2020/12/24 02:07:29;;;;;;;2.25;1.63;;;;;;;;;;5073321;28;20048;-51
2020/12/24 02:09:55;;;;;;;3.72;1.83;;;;;;;;;;5078198;28;20518;-49
2020/12/24 02:12:21;;;;;;;3.70;2.10;;;;;;;;;;5076564;28;20024;-52
2020/12/24 02:14:47;;;;;;;3.13;2.20;;;;;;;;;;5079260;28;20093;-49
2020/12/24 02:17:13;;;;;;;2.78;2.17;;;;;;;;;;5077619;28;20024;-51
2020/12/24 02:19:43;;;;;;;3.28;2.33;;;;;;;;;;5075594;28;20033;-47
2020/12/24 02:22:09;;;;;;;6.15;2.22;;;;;;;;;;5076757;28;20507;-47
2020/12/24 02:24:36;;;;;;;3.45;2.20;;;;;;;;;;5067291;28;20465;-54
2020/12/24 02:27:02;;;;;;;3.45;2.30;;;;;;;;;;5070035;28;20055;-50
2020/12/24 02:29:28;;;;;;;4.28;2.33;;;;;;;;;;5070881;28;20040;-51
2020/12/24 02:31:54;;;;;;;4.28;2.33;;;;;;;;;;5066626;28;20029;-47
2020/12/24 02:34:20;;;;;;;4.40;2.60;;;;;;;;;;5068814;28;20032;-49
2020/12/24 02:36:46;;;;;;;3.50;2.50;;;;;;;;;;5068477;28;20043;-52
2020/12/24 02:39:12;;;;;;;4.22;2.17;;;;;;;;;;5077978;28;20380;-47
2020/12/24 02:41:38;;;;;;;5.25;2.90;;;;;;;;;;5081714;28;20111;-47
2020/12/24 02:44:04;;;;;;;4.85;2.45;;;;;;;;;;5076413;28;20025;-50
2020/12/24 02:46:30;;;;;;;5.00;2.90;;;;;;;;;;5076911;28;20526;-49
2020/12/24 02:48:56;;;;;;;6.18;2.85;;;;;;;;;;5077949;28;20078;-52
2020/12/24 02:51:22;;;;;;;5.03;3.50;;;;;;;;;;5071342;28;20540;-51
2020/12/24 02:53:48;;;;;;;5.43;3.28;;;;;;;;;;5071250;28;20488;-52
2020/12/24 02:56:14;;;;;;;5.32;3.38;;;;;;;;;;5070697;28;20043;-50
2020/12/24 02:58:40;;;;;;;4.75;3.67;;;;;;;;;;5071623;28;20032;-47
2020/12/24 03:01:06;;;;;;;6.45;3.97;;;;;;;;;;5074110;28;20435;-48
2020/12/24 03:03:32;;;;;;;7.53;4.00;;;;;;;;;;5079102;28;20432;-48
2020/12/24 03:05:58;;;;;;;7.22;4.20;;;;;;;;;;5073642;28;20503;-52
2020/12/24 03:08:24;;;;;;;4.55;3.58;;;;;;;;;;5069733;28;20043;-52
2020/12/24 03:10:50;;;;;;;5.70;3.70;;;;;;;;;;5070869;28;20547;-47
2020/12/24 03:13:16;;;;;;;5.88;4.30;;;;;;;;;;5076310;28;20020;-47
2020/12/24 03:15:42;;;;;;;6.13;4.07;;;;;;;;;;5081004;28;20028;-50
2020/12/24 03:18:08;;;;;;;7.32;4.50;;;;;;;;;;5071414;28;20536;-50
2020/12/24 03:20:33;;;;;;;4.97;3.65;;;;;;;;;;5076848;28;20035;-48
2020/12/24 03:22:59;;;;;;;6.30;3.78;;;;;;;;;;5071231;28;20017;-47
2020/12/24 03:25:25;;;;;;;6.05;3.75;;;;;;;;;;5074874;28;20044;-48
2020/12/24 03:27:51;;;;;;;7.32;3.53;;;;;;;;;;5071684;28;20438;-50
2020/12/24 03:30:17;;;;;;;8.68;3.78;;;;;;;;;;5078939;28;20754;-52
2020/12/24 03:32:43;;;;;;;6.13;3.17;;;;;;;;;;5072671;28;20082;-53
2020/12/24 03:35:09;;;;;;;4.97;2.95;;;;;;;;;;5069402;28;20057;-57
2020/12/24 03:37:35;;;;;;;7.13;3.10;;;;;;;;;;5070099;28;20032;-52
2020/12/24 03:40:01;;;;;;;6.28;2.20;;;;;;;;;;5077932;28;20028;-51
2020/12/24 03:42:27;;;;;;;3.92;2.10;;;;;;;;;;5072762;28;20055;-52
2020/12/24 03:44:53;;;;;;;3.97;2.00;;;;;;;;;;5079783;28;20032;-53
2020/12/24 03:47:19;;;;;;;4.50;1.80;;;;;;;;;;5071848;28;20044;-54
2020/12/24 03:49:45;;;;;;;5.15;2.05;;;;;;;;;;5074396;28;20038;-51
2020/12/24 03:52:11;;;;;;;5.72;1.83;;;;;;;;;;5080677;28;20028;-53
2020/12/24 03:54:37;;;;;;;2.42;1.98;;;;;;;;;;5074168;28;20047;-53
2020/12/24 03:57:03;;;;;;;7.78;2.22;;;;;;;;;;5077284;28;20498;-52
2020/12/24 03:59:29;;;;;;;3.47;2.10;;;;;;;;;;5074398;28;20122;-55
2020/12/24 04:01:55;;;;;;;4.40;2.20;;;;;;;;;;5078121;28;20028;-50
2020/12/24 04:04:21;;;;;;;3.00;2.10;;;;;;;;;;5069917;28;20035;-55
2020/12/24 04:06:46;;;;;;;4.30;2.38;;;;;;;;;;5069849;28;20032;-53
2020/12/24 04:09:12;;;;;;;3.40;2.03;;;;;;;;;;5074199;28;20047;-52
2020/12/24 04:11:38;;;;;;;5.75;2.20;;;;;;;;;;5079039;28;20027;-50
2020/12/24 04:14:04;;;;;;;3.08;1.98;;;;;;;;;;5074997;28;20048;-53
2020/12/24 04:16:30;;;;;;;3.85;1.85;;;;;;;;;;5077077;28;20025;-57
2020/12/24 04:18:56;;;;;;;6.70;2.25;;;;;;;;;;5072087;28;20077;-52
2020/12/24 04:21:22;;;;;;;6.78;2.30;;;;;;;;;;5072125;28;20020;-55
2020/12/24 04:23:48;;;;;;;2.67;1.90;;;;;;;;;;5069223;28;20482;-54
2020/12/24 04:26:23;;;;;;;5.55;2.05;;;;;;;;;;5074293;28;20047;-52
2020/12/24 04:28:50;;;;;;;6.38;2.30;;;;;;;;;;5082710;28;20042;-55
2020/12/24 04:31:16;;;;;;;6.50;2.00;;;;;;;;;;5069967;28;20025;-52
2020/12/24 04:33:43;;;;;;;5.90;2.20;;;;;;;;;;5080579;28;20028;-53
2020/12/24 04:36:09;;;;;;;4.65;2.00;;;;;;;;;;5075456;28;20046;-53
2020/12/24 04:38:35;;;;;;;4.63;1.95;;;;;;;;;;5077018;28;20062;-54
2020/12/24 04:41:01;;;;;;;6.75;1.88;;;;;;;;;;5072811;28;20032;-54
2020/12/24 04:43:27;;;;;;;5.40;1.73;;;;;;;;;;5076795;28;20499;-53
2020/12/24 04:45:53;;;;;;;3.40;1.50;;;;;;;;;;5074384;28;20020;-54
2020/12/24 04:48:20;;;;;;;6.53;1.52;;;;;;;;;;5073545;28;20115;-52
2020/12/24 04:50:49;;;;;;;4.35;1.60;;;;;;;;;;5065719;28;20107;-55
2020/12/24 04:53:15;;;;;;;3.97;1.60;;;;;;;;;;5078308;28;20031;-49
2020/12/24 04:55:41;;;;;;;5.25;1.40;;;;;;;;;;5067180;28;20028;-55
2020/12/24 04:58:09;;;;;;;7.28;1.67;;;;;;;;;;5064667;28;20028;-50
2020/12/24 05:00:35;;;;;;;6.13;1.50;;;;;;;;;;5074659;28;20391;-53
2020/12/24 05:03:10;;;;;;;6.63;2.05;;;;;;;;;;5076117;28;20024;-50
2020/12/24 05:05:39;;;;;;;8.63;1.35;;;;;;;;;;5074600;28;20510;-52
2020/12/24 05:08:06;;;;;;;6.72;0.98;;;;;;;;;;5071799;28;20048;-52
2020/12/24 05:10:33;;;;;;;4.00;1.23;;;;;;;;;;5077418;28;20042;-49
2020/12/24 05:12:59;;;;;;;4.38;2.03;;;;;;;;;;5080950;28;20039;-50
2020/12/24 05:15:30;;;;;;;3.88;1.50;;;;;;;;;;5075307;28;20380;-54
2020/12/24 05:18:18;;;;;;;4.28;1.63;;;;;;;;;;5071188;28;20427;-51
2020/12/24 05:20:44;;;;;;;2.08;1.10;;;;;;;;;;5065128;28;20024;-51
2020/12/24 05:23:11;;;;;;;3.50;1.40;;;;;;;;;;5075416;28;20040;-50
2020/12/24 05:25:37;;;;;;;7.25;1.90;;;;;;;;;;5070535;28;20033;-56
2020/12/24 05:28:03;;;;;;;4.70;1.50;;;;;;;;;;5077011;28;20037;-54
2020/12/24 05:30:29;;;;;;;9.50;1.40;;;;;;;;;;5076134;28;20043;-54
2020/12/24 05:32:55;;;;;;;3.05;1.40;;;;;;;;;;5077816;28;20051;-49
2020/12/24 05:35:24;;;;;;;7.60;1.63;;;;;;;;;;5072102;28;20025;-51
2020/12/24 05:37:51;;;;;;;4.68;1.73;;;;;;;;;;5070487;28;20029;-55
2020/12/24 05:40:16;;;;;;;8.93;1.80;;;;;;;;;;5076921;28;20396;-56
2020/12/24 05:42:55;;;;;;;7.10;1.77;;;;;;;;;;5072532;28;20028;-51
2020/12/24 05:45:23;;;;;;;2.65;1.55;;;;;;;;;;5075041;28;20487;-55
2020/12/24 05:48:04;;;;;;;3.72;2.00;;;;;;;;;;5069946;28;20029;-50
2020/12/24 05:50:30;;;;;;;6.60;1.73;;;;;;;;;;5065707;28;20039;-52
2020/12/24 05:53:16;;;;;;;4.40;1.50;;;;;;;;;;5078308;28;20032;-54
2020/12/24 05:55:43;;;;;;;5.53;1.67;;;;;;;;;;5073856;28;20536;-53
2020/12/24 05:58:09;;;;;;;5.80;1.88;;;;;;;;;;5073639;28;20023;-54
2020/12/24 06:00:39;;;;;;;5.10;1.58;;;;;;;;;;5074392;28;20519;-51
2020/12/24 06:03:08;;;;;;;11.70;1.83;;;;;;;;;;5074949;28;20056;-51
2020/12/24 06:05:37;;;;;;;4.15;1.73;;;;;;;;;;5071024;28;20032;-51
2020/12/24 06:08:16;;;;;;;4.72;1.60;;;;;;;;;;5071638;28;20056;-49
2020/12/24 06:10:46;;;;;;;10.07;1.80;;;;;;;;;;5069596;28;20867;-52
2020/12/24 06:13:16;;;;;;;5.95;1.70;;;;;;;;;;5075889;28;20042;-56
2020/12/24 06:15:47;;;;;;;10.45;1.60;;;;;;;;;;5072063;28;20028;-51
2020/12/24 06:18:14;;;;;;;8.13;1.70;;;;;;;;;;5071669;28;20052;-50
2020/12/24 06:20:44;;;;;;;7.03;1.65;;;;;;;;;;5078128;28;20043;-49
2020/12/24 06:23:11;;;;;;;4.80;1.38;;;;;;;;;;5078617;28;20028;-55
2020/12/24 06:25:37;;;;;;;12.27;1.67;;;;;;;;;;5072538;28;20059;-49
2020/12/24 06:28:04;;;;;;;8.00;1.38;;;;;;;;;;5073942;28;20615;-49
2020/12/24 06:30:30;;;;;;;5.15;1.40;;;;;;;;;;5072490;28;20359;-52
2020/12/24 06:32:56;;;;;;;3.67;1.00;;;;;;;;;;5072369;28;20025;-49
2020/12/24 06:35:38;;;;;;;6.75;1.30;;;;;;;;;;5077269;28;20159;-51
2020/12/24 06:38:05;;;;;;;3.38;1.70;;;;;;;;;;5062433;28;20036;-52
2020/12/24 06:40:32;;;;;;;6.07;1.73;;;;;;;;;;5066151;28;20123;-51
2020/12/24 06:42:58;;;;;;;6.97;1.50;;;;;;;;;;5082159;28;20036;-56
2020/12/24 06:45:32;;;;;;;6.68;1.38;;;;;;;;;;5072282;28;20043;-49
2020/12/24 06:48:16;;;;;;;5.32;1.60;;;;;;;;;;5075651;28;20075;-52
2020/12/24 06:50:46;;;;;;;4.70;1.30;;;;;;;;;;5068518;28;20036;-52
2020/12/24 06:53:21;;;;;;;4.00;1.05;;;;;;;;;;5070795;28;20036;-52
2020/12/24 06:56:13;;;;;;;13.50;1.77;;;;;;;;;;5065761;28;20795;-53
2020/12/24 06:58:39;;;;;;;4.47;1.50;;;;;;;;;;5055842;28;20043;-49
2020/12/24 07:01:05;;;;;;;8.23;1.38;;;;;;;;;;5066197;28;20043;-52
2020/12/24 07:03:31;;;;;;;4.13;1.60;;;;;;;;;;5074558;28;20070;-51
2020/12/24 07:05:57;;;;;;;8.02;1.70;;;;;;;;;;5072044;28;20038;-52
2020/12/24 07:08:45;;;;;;;8.35;1.45;;;;;;;;;;5073443;28;20544;-49
2020/12/24 07:11:11;;;;;;;6.93;1.55;;;;;;;;;;5077419;28;20024;-50
2020/12/24 07:13:41;;;;;;;12.20;1.70;;;;;;;;;;5069308;28;20025;-55
2020/12/24 07:16:08;;;;;;;6.93;1.05;;;;;;;;;;5079032;28;20539;-53
2020/12/24 07:18:40;;;;;;;4.72;1.88;;;;;;;;;;5072356;28;20044;-54
2020/12/24 07:21:07;;;;;;;15.00;1.73;;;;;;;;;;5069927;28;20019;-51
2020/12/24 07:23:41;;;;;;;5.90;1.50;;;;;;;;;;5082072;28;20028;-52
2020/12/24 07:26:08;;;;;;;6.10;1.27;;;;;;;;;;5088549;28;20024;-51
2020/12/24 07:28:35;;;;;;;6.47;1.00;;;;;;;;;;5078997;28;20403;-57
2020/12/24 07:31:02;;;;;;;9.93;1.80;;;;;;;;;;5065323;28;20020;-53
2020/12/24 07:33:28;;;;;;;17.98;2.03;;;;;;;;;;5069149;28;20138;-57
2020/12/24 07:35:54;;;;;;;5.85;1.05;;;;;;;;;;5075944;28;20064;-50
2020/12/24 07:38:24;;;;;;;6.63;1.30;;;;;;;;;;5067726;28;20097;-52
2020/12/24 07:40:50;;;;;;;9.18;1.50;;;;;;;;;;5075188;28;20032;-51
2020/12/24 07:43:16;;;;;;;6.10;1.23;;;;;;;;;;5071462;28;20104;-55
2020/12/24 07:45:43;;;;;;;6.78;1.65;;;;;;;;;;5069825;28;20491;-53
2020/12/24 07:48:12;;;;;;;11.30;1.67;;;;;;;;;;5072371;28;20033;-55
2020/12/24 07:50:38;;;;;;;10.60;1.73;;;;;;;;;;5075120;28;20043;-51
2020/12/24 07:53:04;;;;;;;9.00;1.90;;;;;;;;;;5076255;28;20025;-53
2020/12/24 07:55:30;;;;;;;5.53;1.30;;;;;;;;;;5072968;28;20029;-56
2020/12/24 07:58:06;;;;;;;10.32;2.15;;;;;;;;;;5067011;28;20035;-49
2020/12/24 08:00:38;;;;;;;6.90;1.02;;;;;;;;;;5062519;28;20115;-50
2020/12/24 08:03:04;;;;;;;7.75;1.55;;;;;;;;;;5074866;28;20028;-51
2020/12/24 08:05:30;;;;;;;6.63;1.48;;;;;;;;;;5072306;28;20031;-49
2020/12/24 08:07:56;;;;;;;7.85;1.58;;;;;;;;;;5076400;28;20510;-53
2020/12/24 08:10:22;;;;;;;11.60;1.25;;;;;;;;;;5068745;28;20017;-55
2020/12/24 08:12:49;;;;;;;5.30;1.25;;;;;;;;;;5067099;28;20025;-52
2020/12/24 08:15:16;;;;;;;4.68;1.27;;;;;;;;;;5072446;28;20031;-54
2020/12/24 08:17:45;;;;;;;8.27;1.50;;;;;;;;;;5075946;28;20032;-51
2020/12/24 08:20:13;;;;;;;6.28;1.70;;;;;;;;;;5066704;28;20043;-56
2020/12/24 08:22:44;;;;;;;5.88;2.10;;;;;;;;;;5075448;28;20032;-55
2020/12/24 08:25:11;;;;;;;4.80;1.40;;;;;;;;;;5069060;28;20042;-52
2020/12/24 08:27:37;;;;;;;4.95;1.02;;;;;;;;;;5080314;28;20032;-53
2020/12/24 08:30:06;;;;;;;4.85;1.27;;;;;;;;;;5066217;28;20056;-51
2020/12/24 08:32:33;;;;;;;5.00;1.13;;;;;;;;;;5087925;28;20020;-50
2020/12/24 08:35:12;;;;;;;11.90;1.33;;;;;;;;;;5086238;28;20728;-51
2020/12/24 08:37:38;;;;;;;6.50;1.48;;;;;;;;;;5075225;28;20029;-51
2020/12/24 08:40:20;;;;;;;4.78;1.80;;;;;;;;;;5080240;28;20028;-50
2020/12/24 08:42:47;;;;;;;4.30;1.20;;;;;;;;;;5080835;28;20380;-50
2020/12/24 08:45:14;;;;;;;7.55;1.50;;;;;;;;;;5074493;28;20483;-53
2020/12/24 08:47:40;;;;;;;5.95;1.30;;;;;;;;;;5077644;28;20146;-56
2020/12/24 08:50:06;;;;;;;5.18;1.70;;;;;;;;;;5076596;28;20025;-51
2020/12/24 08:52:37;;;;;;;4.75;1.38;;;;;;;;;;5078995;28;20033;-49
2020/12/24 08:55:09;;;;;;;2.95;1.23;;;;;;;;;;5079532;28;20050;-56
2020/12/24 08:57:35;;;;;;;5.70;1.50;;;;;;;;;;5073166;28;20031;-52
2020/12/24 09:00:08;;;;;;;4.50;1.05;;;;;;;;;;5074531;28;20081;-51
2020/12/24 09:02:35;;;;;;;;;;;;;;;;;;5071095;28;20357;-52
2020/12/24 09:05:01;;;;;;;6.75;1.15;;;;;;;;;;5077363;28;19940;-48
2020/12/24 09:07:29;;;;;;;4.40;2.10;;;;;;;;;;5081662;28;20052;-51
2020/12/24 09:10:04;;;;;;;10.88;1.55;;;;;;;;;;5078580;28;20025;-50
2020/12/24 09:12:30;;;;;;;7.75;2.13;;;;;;;;;;5074321;28;20056;-53
2020/12/24 09:15:15;;;;;;;2.78;1.20;;;;;;;;;;5075134;28;20415;-54
2020/12/24 09:17:51;;;;;;;7.13;1.70;;;;;;;;;;5079042;28;20433;-53
2020/12/24 09:20:27;;;;;;;4.18;1.30;;;;;;;;;;5075322;28;20036;-54
2020/12/24 09:22:53;;;;;;;9.32;1.50;;;;;;;;;;5074444;28;20063;-55
2020/12/24 09:25:29;;;;;;;5.95;1.40;;;;;;;;;;5073610;28;20079;-53
2020/12/24 09:27:55;;;;;;;11.50;1.42;;;;;;;;;;5085403;28;20035;-56
2020/12/24 09:30:21;;;;;;;3.92;1.30;;;;;;;;;;5084057;28;20039;-49
2020/12/24 09:32:58;;;;;;;3.83;1.05;;;;;;;;;;5082919;28;20020;-52
2020/12/24 09:35:25;;;;;;;9.13;1.40;;;;;;;;;;5078296;28;20025;-53
2020/12/24 09:37:51;;;;;;;18.05;3.30;;;;;;;;;;5059221;28;20047;-54
2020/12/24 09:40:17;;;;;;;10.93;1.55;;;;;;;;;;5067613;28;20025;-53
2020/12/24 09:42:43;;;;;;;11.90;1.70;;;;;;;;;;5079959;28;20031;-49
2020/12/24 09:45:09;;;;;;;5.20;1.27;;;;;;;;;;5087868;28;20773;-56
2020/12/24 09:47:35;;;;;;;4.15;1.38;;;;;;;;;;5072318;28;20048;-53
2020/12/24 09:50:01;;;;;;;12.15;2.20;;;;;;;;;;5072432;28;20051;-55
2020/12/24 09:52:27;;;;;;;5.60;1.52;;;;;;;;;;5077394;28;20033;-53
2020/12/24 09:54:53;;;;;;;5.45;1.45;;;;;;;;;;5085868;28;20016;-54
2020/12/24 09:57:19;;;;;;;8.95;1.55;;;;;;;;;;5079241;28;20031;-55
2020/12/24 09:59:45;;;;;;;8.02;1.48;;;;;;;;;;5083077;28;20156;-51
2020/12/24 10:02:11;;;;;;;5.88;1.45;;;;;;;;;;5074432;28;20025;-54
2020/12/24 10:04:37;;;;;;;11.52;1.65;;;;;;;;;;5072286;28;20029;-54
2020/12/24 10:07:03;;;;;;;7.32;1.30;;;;;;;;;;5078088;28;20099;-55
2020/12/24 10:09:29;;;;;;;6.20;1.75;;;;;;;;;;5080026;28;20040;-56
2020/12/24 10:11:55;;;;;;;6.38;1.20;;;;;;;;;;5074566;28;20037;-56
2020/12/24 10:14:21;;;;;;;5.07;1.40;;;;;;;;;;5074338;28;20039;-56
2020/12/24 10:16:46;;;;;;;4.05;1.40;;;;;;;;;;5073087;28;20052;-54
2020/12/24 10:19:12;;;;;;;6.88;1.50;;;;;;;;;;5071432;28;20070;-54
2020/12/24 10:21:39;;;;;;;8.40;1.30;;;;;;;;;;5063949;28;20037;-55
2020/12/24 10:24:05;;;;;;;9.32;1.45;;;;;;;;;;5071509;28;20024;-58
2020/12/24 10:26:31;;;;;;;4.88;1.70;;;;;;;;;;5076361;28;20460;-56
2020/12/24 10:28:57;;;;;;;8.68;1.65;;;;;;;;;;5084233;28;20039;-58
2020/12/24 10:31:23;;;;;;;3.05;1.35;;;;;;;;;;5078248;28;20400;-57
2020/12/24 10:33:49;;;;;;;3.63;1.40;;;;;;;;;;5074023;28;20028;-55
2020/12/24 10:36:25;;;;;;;3.80;1.13;;;;;;;;;;5073288;28;20025;-55
2020/12/24 10:38:51;;;;;;;5.78;1.30;;;;;;;;;;5073243;28;20041;-57
2020/12/24 10:41:17;;;;;;;8.75;1.52;;;;;;;;;;5077794;28;20036;-58
2020/12/24 10:43:44;;;;;;;5.07;1.25;;;;;;;;;;5072304;28;20479;-54
2020/12/24 10:46:15;;;;;;;9.13;1.73;;;;;;;;;;5077346;28;20555;-55
2020/12/24 10:48:41;;;;;;;3.97;1.38;;;;;;;;;;5077246;28;20756;-57
2020/12/24 10:51:08;;;;;;;4.30;1.13;;;;;;;;;;5081424;28;20027;-56
2020/12/24 10:53:34;;;;;;;13.93;4.40;;;;;;;;;;5079195;28;20085;-52
2020/12/24 10:56:00;;;;;;;10.25;1.23;;;;;;;;;;5083223;28;20034;-55
2020/12/24 10:58:26;;;;;;;6.35;1.85;;;;;;;;;;5071610;28;20029;-52
2020/12/24 11:00:52;;;;;;;4.25;1.20;;;;;;;;;;5076972;28;20032;-56
2020/12/24 11:03:20;;;;;;;5.57;1.23;;;;;;;;;;5069840;28;20090;-56
2020/12/24 11:05:46;;;;;;;2.97;1.15;;;;;;;;;;5077682;28;20028;-57
2020/12/24 11:08:12;;;;;;;3.17;0.70;;;;;;;;;;5068806;28;20558;-57
2020/12/24 11:10:38;;;;;;;2.60;0.70;;;;;;;;;;5060551;28;20047;-53
2020/12/24 11:13:04;;;;;;;2.20;0.70;;;;;;;;;;5065567;28;20372;-53
2020/12/24 11:15:30;;;;;;;2.05;0.50;;;;;;;;;;5068910;28;20028;-53
2020/12/24 11:17:56;;;;;;;0.60;0.50;;;;;;;;;;5063274;28;20032;-54
2020/12/24 11:20:22;;;;;;;0.40;0.40;;;;;;;;;;5076974;28;20028;-56
2020/12/24 11:22:48;;;;;;;0.50;0.45;;;;;;;;;;5082461;28;20028;-57
2020/12/24 11:25:14;;;;;;;0.50;0.50;;;;;;;;;;5085671;28;20032;-57
2020/12/24 11:27:40;;;;;;;0.50;0.40;;;;;;;;;;5075272;28;20039;-57
2020/12/24 11:30:06;;;;;;;0.50;0.50;;;;;;;;;;5070111;28;20028;-58
2020/12/24 11:32:32;;;;;;;0.30;0.30;;;;;;;;;;5068879;28;20134;-56
2020/12/24 11:34:58;;;;;;;0.63;0.50;;;;;;;;;;5068211;28;20035;-56
2020/12/24 11:37:24;;;;;;;0.30;0.30;;;;;;;;;;5067017;28;20042;-55
2020/12/24 11:39:50;;;;;;;0.40;0.40;;;;;;;;;;5071545;28;20032;-55
2020/12/24 11:42:16;;;;;;;0.43;0.40;;;;;;;;;;5076421;28;20028;-58
2020/12/24 11:44:42;;;;;;;0.30;0.30;;;;;;;;;;5070811;28;20028;-52
2020/12/24 11:47:08;;;;;;;0.68;0.60;;;;;;;;;;5069084;28;20361;-57
2020/12/24 11:49:34;;;;;;;2.35;0.50;;;;;;;;;;5064667;28;20024;-57
2020/12/24 11:52:04;;;;;;;1.20;0.50;;;;;;;;;;5073703;28;20043;-57
2020/12/24 11:54:30;;;;;;;0.60;0.55;;;;;;;;;;5064870;28;20032;-54
2020/12/24 11:56:56;;;;;;;0.63;0.40;;;;;;;;;;5065780;28;20027;-57
2020/12/24 11:59:21;;;;;;;0.47;0.47;;;;;;;;;;5069473;28;20040;-53
2020/12/24 12:01:51;;;;;;;0.80;0.55;;;;;;;;;;5071649;28;20048;-56
2020/12/24 12:04:17;;;;;;;0.68;0.60;;;;;;;;;;5078318;28;20085;-55
2020/12/24 12:06:43;;;;;;;0.55;0.40;;;;;;;;;;5068200;28;20037;-57
2020/12/24 12:09:09;;;;;;;0.40;0.40;;;;;;;;;;5067789;28;20107;-54
2020/12/24 12:11:35;;;;;;;0.90;0.43;;;;;;;;;;5066893;28;20333;-58
2020/12/24 12:14:01;;;;;;;0.55;0.50;;;;;;;;;;5071807;28;20025;-58
2020/12/24 12:16:28;;;;;;;1.05;0.60;;;;;;;;;;5071304;28;20077;-57
2020/12/24 12:18:54;;;;;;;0.40;0.40;;;;;;;;;;5067966;28;20036;-57
2020/12/24 12:21:21;;;;;;;1.02;0.50;;;;;;;;;;5068550;28;20032;-58
2020/12/24 12:23:47;;;;;;;0.60;0.40;;;;;;;;;;5066989;28;20458;-55
2020/12/24 12:26:15;;;;;;;0.55;0.40;;;;;;;;;;5070085;28;20032;-57
2020/12/24 12:28:44;;;;;;;0.50;0.45;;;;;;;;;;5075424;28;20491;-56
2020/12/24 12:31:18;;;;;;;0.40;0.40;;;;;;;;;;5073599;28;20021;-57
2020/12/24 12:33:44;;;;;;;0.65;0.50;;;;;;;;;;5075416;28;20073;-58
2020/12/24 12:36:09;;;;;;;0.32;0.30;;;;;;;;;;5069697;28;20024;-53
2020/12/24 12:38:35;;;;;;;0.30;0.30;;;;;;;;;;5077731;28;20052;-57
2020/12/24 12:41:01;;;;;;;0.30;0.30;;;;;;;;;;5069920;28;20082;-58
2020/12/24 12:43:27;;;;;;;0.30;0.30;;;;;;;;;;5066696;28;20028;-55
2020/12/24 12:45:53;;;;;;;0.50;0.50;;;;;;;;;;5065877;28;20029;-56
2020/12/24 12:48:20;;;;;;;0.40;0.40;;;;;;;;;;5070087;28;20032;-58
2020/12/24 12:50:46;;;;;;;2.10;0.40;;;;;;;;;;5066927;28;20036;-57
2020/12/24 12:53:12;;;;;;;1.60;0.40;;;;;;;;;;5077405;28;20027;-55
2020/12/24 12:55:38;;;;;;;0.45;0.40;;;;;;;;;;5068704;28;20441;-55
2020/12/24 12:58:04;;;;;;;0.50;0.40;;;;;;;;;;5073449;28;20047;-51
2020/12/24 13:00:30;;;;;;;0.50;0.47;;;;;;;;;;5075923;28;20476;-57
2020/12/24 13:02:56;;;;;;;0.43;0.43;;;;;;;;;;5072354;28;20017;-56
2020/12/24 13:05:22;;;;;;;0.50;0.43;;;;;;;;;;5062599;28;20024;-55
2020/12/24 13:07:48;;;;;;;0.30;0.30;;;;;;;;;;5072212;28;20372;-53
2020/12/24 13:10:14;;;;;;;0.52;0.40;;;;;;;;;;5072282;28;20456;-55
2020/12/24 13:12:40;;;;;;;1.38;0.60;;;;;;;;;;5070194;28;20031;-54
2020/12/24 13:15:06;;;;;;;0.47;0.47;;;;;;;;;;5072897;28;20028;-52
2020/12/24 13:17:32;;;;;;;0.55;0.55;;;;;;;;;;5073514;28;20033;-56
2020/12/24 13:19:58;;;;;;;0.57;0.43;;;;;;;;;;5070137;28;20033;-56
2020/12/24 13:22:24;;;;;;;0.60;0.50;;;;;;;;;;5068367;28;20039;-57
2020/12/24 13:24:50;;;;;;;0.65;0.43;;;;;;;;;;5070150;28;20056;-57
2020/12/24 13:27:16;;;;;;;1.23;0.38;;;;;;;;;;5076284;28;20024;-57
2020/12/24 13:29:43;;;;;;;0.55;0.47;;;;;;;;;;5073139;28;20357;-55
2020/12/24 13:32:09;;;;;;;0.50;0.50;;;;;;;;;;5073076;28;20036;-56
2020/12/24 13:34:35;;;;;;;0.40;0.40;;;;;;;;;;5072323;28;20036;-55
2020/12/24 13:37:01;;;;;;;0.47;0.47;;;;;;;;;;5071069;28;20020;-56
2020/12/24 13:39:27;;;;;;;0.60;0.57;;;;;;;;;;5071591;28;20366;-54
2020/12/24 13:41:53;;;;;;;0.60;0.50;;;;;;;;;;5072396;28;20104;-55
2020/12/24 13:44:19;;;;;;;2.33;0.57;;;;;;;;;;5067420;28;20028;-56
2020/12/24 13:46:46;;;;;;;2.47;0.60;;;;;;;;;;5067001;28;21274;-56
2020/12/24 13:49:12;;;;;;;0.50;0.50;;;;;;;;;;5070050;28;20025;-54
2020/12/24 13:51:38;;;;;;;0.68;0.60;;;;;;;;;;5068607;28;20036;-57
2020/12/24 13:54:04;;;;;;;1.50;0.70;;;;;;;;;;5074260;28;20523;-56
2020/12/24 13:56:30;;;;;;;0.57;0.57;;;;;;;;;;5065418;28;20032;-58
2020/12/24 13:58:56;;;;;;;1.02;0.57;;;;;;;;;;5072369;28;20036;-57
2020/12/24 14:01:22;;;;;;;1.00;0.90;;;;;;;;;;5071693;28;20028;-56
2020/12/24 14:03:48;;;;;;;0.88;0.70;;;;;;;;;;5075308;28;20054;-52
2020/12/24 14:06:14;;;;;;;0.52;0.52;;;;;;;;;;5077353;28;20032;-55
2020/12/24 14:08:40;;;;;;;0.60;0.57;;;;;;;;;;5074428;28;20032;-57
2020/12/24 14:11:07;;;;;;;1.13;0.60;;;;;;;;;;5075274;28;20074;-55
2020/12/24 14:13:34;;;;;;;1.45;1.08;;;;;;;;;;5070238;28;20445;-54
2020/12/24 14:16:00;;;;;;;0.50;0.50;;;;;;;;;;5071376;28;20115;-57
2020/12/24 14:18:27;;;;;;;1.55;1.00;;;;;;;;;;5067935;28;20123;-56
2020/12/24 14:20:53;;;;;;;2.25;0.40;;;;;;;;;;5073651;28;20028;-58
2020/12/24 14:23:22;;;;;;;0.98;0.80;;;;;;;;;;5073656;28;20083;-57
2020/12/24 14:25:48;;;;;;;0.60;0.60;;;;;;;;;;5071837;28;20032;-56
2020/12/24 14:28:14;;;;;;;1.00;0.55;;;;;;;;;;5071992;28;20040;-58
2020/12/24 14:30:40;;;;;;;0.68;0.65;;;;;;;;;;5079474;28;20486;-52
2020/12/24 14:33:06;;;;;;;0.85;0.70;;;;;;;;;;5069472;28;20636;-55
2020/12/24 14:35:32;;;;;;;0.85;0.60;;;;;;;;;;5077887;28;20032;-55
2020/12/24 14:37:59;;;;;;;0.77;0.77;;;;;;;;;;5076605;28;20077;-55
2020/12/24 14:40:25;;;;;;;0.57;0.40;;;;;;;;;;5069699;28;20029;-58
2020/12/24 14:42:51;;;;;;;0.60;0.60;;;;;;;;;;5070988;28;20048;-56